sensor_id;sensor_type;location;lat;lon;timestamp;temperature;humidity
22629;DHT22;11481;53.694;9.910;2022-12-17T00:00:09;-1.00;99.90
22629;DHT22;11481;53.694;9.910;2022-12-17T00:02:58;-1.00;99.90
22629;DHT22;11481;53.694;9.910;2022-12-17T00:05:44;-1.00;99.90
22629;DHT22;11481;53.694;9.910;2022-12-17T00:08:30;-1.00;99.90
22629;DHT22;11481;53.694;9.910;2022-12-17T00:11:15;-1.10;99.90
22629;DHT22;11481;53.694;9.910;2022-12-17T00:14:00;-1.10;99.90
22629;DHT22;11481;53.694;9.910;2022-12-17T00:16:45;-1.10;99.90
22629;DHT22;11481;53.694;9.910;2022-12-17T00:19:31;-1.30;99.90
22629;DHT22;11481;53.694;9.910;2022-12-17T00:22:21;-1.30;99.90
22629;DHT22;11481;53.694;9.910;2022-12-17T00:25:07;-1.40;99.90
22629;DHT22;11481;53.694;9.910;2022-12-17T00:27:52;-1.70;99.90
22629;DHT22;11481;53.694;9.910;2022-12-17T00:30:37;-1.60;99.90
22629;DHT22;11481;53.694;9.910;2022-12-17T00:33:22;-1.60;99.90
22629;DHT22;11481;53.694;9.910;2022-12-17T00:36:07;-1.60;99.90
22629;DHT22;11481;53.694;9.910;2022-12-17T00:38:53;-1.60;99.90
22629;DHT22;11481;53.694;9.910;2022-12-17T00:41:38;-1.50;99.90
22629;DHT22;11481;53.694;9.910;2022-12-17T00:44:23;-1.60;99.90
22629;DHT22;11481;53.694;9.910;2022-12-17T00:47:08;-1.60;99.90
22629;DHT22;11481;53.694;9.910;2022-12-17T00:49:54;-1.60;99.90
22629;DHT22;11481;53.694;9.910;2022-12-17T00:52:39;-1.70;99.90
22629;DHT22;11481;53.694;9.910;2022-12-17T00:55:24;-1.70;99.90
22629;DHT22;11481;53.694;9.910;2022-12-17T00:58:09;-1.70;99.90
22629;DHT22;11481;53.694;9.910;2022-12-17T01:00:59;-1.70;99.90
22629;DHT22;11481;53.694;9.910;2022-12-17T01:03:44;-1.70;99.90
22629;DHT22;11481;53.694;9.910;2022-12-17T01:06:29;-1.70;99.90
22629;DHT22;11481;53.694;9.910;2022-12-17T01:09:15;-1.70;99.90
22629;DHT22;11481;53.694;9.910;2022-12-17T01:12:00;-1.70;99.90
22629;DHT22;11481;53.694;9.910;2022-12-17T01:14:46;-1.70;99.90
22629;DHT22;11481;53.694;9.910;2022-12-17T01:17:33;-1.80;99.90
22629;DHT22;11481;53.694;9.910;2022-12-17T01:20:24;-1.80;99.90
22629;DHT22;11481;53.694;9.910;2022-12-17T01:23:13;-1.80;99.90
22629;DHT22;11481;53.694;9.910;2022-12-17T01:26:00;-1.90;99.90
22629;DHT22;11481;53.694;9.910;2022-12-17T01:28:48;-1.90;99.90
22629;DHT22;11481;53.694;9.910;2022-12-17T01:31:33;-1.90;99.90
22629;DHT22;11481;53.694;9.910;2022-12-17T01:34:18;-1.90;99.90
22629;DHT22;11481;53.694;9.910;2022-12-17T01:37:04;-2.00;99.90
22629;DHT22;11481;53.694;9.910;2022-12-17T01:39:50;-2.10;99.90
22629;DHT22;11481;53.694;9.910;2022-12-17T01:42:43;-2.10;99.90
22629;DHT22;11481;53.694;9.910;2022-12-17T01:45:37;-2.10;99.90
22629;DHT22;11481;53.694;9.910;2022-12-17T01:48:31;-2.10;99.90
22629;DHT22;11481;53.694;9.910;2022-12-17T01:51:18;-2.20;99.90
22629;DHT22;11481;53.694;9.910;2022-12-17T01:54:03;-2.20;99.90
22629;DHT22;11481;53.694;9.910;2022-12-17T01:56:50;-2.20;99.90
22629;DHT22;11481;53.694;9.910;2022-12-17T02:02:26;-2.20;99.90
22629;DHT22;11481;53.694;9.910;2022-12-17T02:05:12;-2.20;99.90
22629;DHT22;11481;53.694;9.910;2022-12-17T02:14:10;-2.20;99.90
22629;DHT22;11481;53.694;9.910;2022-12-17T02:17:00;-2.30;99.90
22629;DHT22;11481;53.694;9.910;2022-12-17T02:26:38;-2.40;99.90
22629;DHT22;11481;53.694;9.910;2022-12-17T02:29:26;-2.60;99.90
22629;DHT22;11481;53.694;9.910;2022-12-17T02:32:13;-2.60;99.90
22629;DHT22;11481;53.694;9.910;2022-12-17T02:35:19;-2.30;99.90
22629;DHT22;11481;53.694;9.910;2022-12-17T02:38:21;-2.70;99.90
22629;DHT22;11481;53.694;9.910;2022-12-17T02:41:13;-3.00;99.90
22629;DHT22;11481;53.694;9.910;2022-12-17T02:43:59;-2.70;99.90
22629;DHT22;11481;53.694;9.910;2022-12-17T02:46:45;-2.70;99.90
22629;DHT22;11481;53.694;9.910;2022-12-17T02:49:32;-2.70;99.90
22629;DHT22;11481;53.694;9.910;2022-12-17T02:52:18;-2.60;99.90
22629;DHT22;11481;53.694;9.910;2022-12-17T02:55:05;-2.60;99.90
22629;DHT22;11481;53.694;9.910;2022-12-17T02:57:51;-2.70;99.90
22629;DHT22;11481;53.694;9.910;2022-12-17T03:00:36;-2.60;99.90
22629;DHT22;11481;53.694;9.910;2022-12-17T03:03:21;-2.70;99.90
22629;DHT22;11481;53.694;9.910;2022-12-17T03:06:14;-2.70;99.90
22629;DHT22;11481;53.694;9.910;2022-12-17T03:09:01;-2.70;99.90
22629;DHT22;11481;53.694;9.910;2022-12-17T03:11:46;-2.70;99.90
22629;DHT22;11481;53.694;9.910;2022-12-17T03:14:31;-2.80;99.90
22629;DHT22;11481;53.694;9.910;2022-12-17T03:17:17;-2.80;99.90
22629;DHT22;11481;53.694;9.910;2022-12-17T03:20:02;-2.80;99.90
22629;DHT22;11481;53.694;9.910;2022-12-17T03:22:48;-2.70;99.90
22629;DHT22;11481;53.694;9.910;2022-12-17T03:25:33;-2.80;99.90
22629;DHT22;11481;53.694;9.910;2022-12-17T03:28:19;-2.80;99.90
22629;DHT22;11481;53.694;9.910;2022-12-17T03:31:04;-2.80;99.90
22629;DHT22;11481;53.694;9.910;2022-12-17T03:33:50;-2.70;99.90
22629;DHT22;11481;53.694;9.910;2022-12-17T03:36:35;-2.80;99.90
22629;DHT22;11481;53.694;9.910;2022-12-17T03:39:20;-2.80;99.90
22629;DHT22;11481;53.694;9.910;2022-12-17T03:42:06;-2.80;99.90
22629;DHT22;11481;53.694;9.910;2022-12-17T03:44:51;-2.90;99.90
22629;DHT22;11481;53.694;9.910;2022-12-17T03:47:36;-2.90;99.90
22629;DHT22;11481;53.694;9.910;2022-12-17T03:50:21;-2.90;99.90
22629;DHT22;11481;53.694;9.910;2022-12-17T03:53:11;-2.90;99.90
22629;DHT22;11481;53.694;9.910;2022-12-17T03:55:57;-3.00;99.90
22629;DHT22;11481;53.694;9.910;2022-12-17T03:58:42;-2.90;99.90
22629;DHT22;11481;53.694;9.910;2022-12-17T04:01:28;-3.00;99.90
22629;DHT22;11481;53.694;9.910;2022-12-17T04:04:13;-2.90;99.90
22629;DHT22;11481;53.694;9.910;2022-12-17T04:07:02;-2.90;99.90
22629;DHT22;11481;53.694;9.910;2022-12-17T04:09:47;-3.00;99.90
22629;DHT22;11481;53.694;9.910;2022-12-17T04:12:32;-3.00;99.90
22629;DHT22;11481;53.694;9.910;2022-12-17T04:15:17;-3.00;99.90
22629;DHT22;11481;53.694;9.910;2022-12-17T04:18:03;-3.00;99.90
22629;DHT22;11481;53.694;9.910;2022-12-17T04:20:48;-3.00;99.90
22629;DHT22;11481;53.694;9.910;2022-12-17T04:23:33;-3.10;99.90
22629;DHT22;11481;53.694;9.910;2022-12-17T04:26:18;-3.10;99.90
22629;DHT22;11481;53.694;9.910;2022-12-17T04:29:04;-3.10;99.90
22629;DHT22;11481;53.694;9.910;2022-12-17T04:31:49;-3.10;99.90
22629;DHT22;11481;53.694;9.910;2022-12-17T04:34:35;-3.10;99.90
22629;DHT22;11481;53.694;9.910;2022-12-17T04:37:20;-3.10;99.90
22629;DHT22;11481;53.694;9.910;2022-12-17T04:40:07;-3.10;99.90
22629;DHT22;11481;53.694;9.910;2022-12-17T04:42:52;-3.10;99.90
22629;DHT22;11481;53.694;9.910;2022-12-17T04:45:38;-3.10;99.90
22629;DHT22;11481;53.694;9.910;2022-12-17T04:48:23;-3.10;99.90
22629;DHT22;11481;53.694;9.910;2022-12-17T04:51:08;-3.10;99.90
22629;DHT22;11481;53.694;9.910;2022-12-17T04:53:53;-3.20;99.90
22629;DHT22;11481;53.694;9.910;2022-12-17T04:56:39;-3.20;99.90
22629;DHT22;11481;53.694;9.910;2022-12-17T04:59:24;-3.20;99.90
22629;DHT22;11481;53.694;9.910;2022-12-17T05:02:09;-3.20;99.90
22629;DHT22;11481;53.694;9.910;2022-12-17T05:04:55;-3.20;99.90
22629;DHT22;11481;53.694;9.910;2022-12-17T05:07:40;-3.20;99.90
22629;DHT22;11481;53.694;9.910;2022-12-17T05:10:25;-3.20;99.90
22629;DHT22;11481;53.694;9.910;2022-12-17T05:13:11;-3.30;99.90
22629;DHT22;11481;53.694;9.910;2022-12-17T05:15:56;-3.20;99.90
22629;DHT22;11481;53.694;9.910;2022-12-17T05:18:42;-3.30;99.90
22629;DHT22;11481;53.694;9.910;2022-12-17T05:21:27;-3.30;99.90
22629;DHT22;11481;53.694;9.910;2022-12-17T05:24:13;-3.30;99.90
22629;DHT22;11481;53.694;9.910;2022-12-17T05:26:58;-3.30;99.90
22629;DHT22;11481;53.694;9.910;2022-12-17T05:29:43;-3.40;99.90
22629;DHT22;11481;53.694;9.910;2022-12-17T05:32:28;-3.40;99.90
22629;DHT22;11481;53.694;9.910;2022-12-17T05:35:15;-3.40;99.90
22629;DHT22;11481;53.694;9.910;2022-12-17T05:38:04;-3.40;99.90
22629;DHT22;11481;53.694;9.910;2022-12-17T05:40:50;-3.40;99.90
22629;DHT22;11481;53.694;9.910;2022-12-17T05:43:35;-3.50;99.90
22629;DHT22;11481;53.694;9.910;2022-12-17T05:46:21;-3.50;99.90
22629;DHT22;11481;53.694;9.910;2022-12-17T05:49:06;-3.50;99.90
22629;DHT22;11481;53.694;9.910;2022-12-17T05:51:51;-3.50;99.90
22629;DHT22;11481;53.694;9.910;2022-12-17T05:54:36;-3.50;99.90
22629;DHT22;11481;53.694;9.910;2022-12-17T05:57:22;-3.50;99.90
22629;DHT22;11481;53.694;9.910;2022-12-17T06:00:08;-3.60;99.90
22629;DHT22;11481;53.694;9.910;2022-12-17T06:03:01;-3.60;99.90
22629;DHT22;11481;53.694;9.910;2022-12-17T06:05:52;-3.60;99.90
22629;DHT22;11481;53.694;9.910;2022-12-17T06:08:37;-3.60;99.90
22629;DHT22;11481;53.694;9.910;2022-12-17T06:11:22;-3.60;99.90
22629;DHT22;11481;53.694;9.910;2022-12-17T06:14:07;-3.70;99.90
22629;DHT22;11481;53.694;9.910;2022-12-17T06:16:53;-3.60;99.90
22629;DHT22;11481;53.694;9.910;2022-12-17T06:19:47;-3.60;99.90
22629;DHT22;11481;53.694;9.910;2022-12-17T06:22:32;-3.70;99.90
22629;DHT22;11481;53.694;9.910;2022-12-17T06:25:17;-3.70;99.90
22629;DHT22;11481;53.694;9.910;2022-12-17T06:28:03;-3.70;99.90
22629;DHT22;11481;53.694;9.910;2022-12-17T06:30:50;-3.70;99.90
22629;DHT22;11481;53.694;9.910;2022-12-17T06:33:35;-3.70;99.90
22629;DHT22;11481;53.694;9.910;2022-12-17T06:36:21;-3.70;99.90
22629;DHT22;11481;53.694;9.910;2022-12-17T06:39:07;-3.80;99.90
22629;DHT22;11481;53.694;9.910;2022-12-17T06:41:53;-3.80;99.90
22629;DHT22;11481;53.694;9.910;2022-12-17T06:44:39;-3.70;99.90
22629;DHT22;11481;53.694;9.910;2022-12-17T06:47:24;-3.70;99.90
22629;DHT22;11481;53.694;9.910;2022-12-17T06:50:09;-3.70;99.90
22629;DHT22;11481;53.694;9.910;2022-12-17T06:53:03;-3.70;99.90
22629;DHT22;11481;53.694;9.910;2022-12-17T06:55:49;-3.80;99.90
22629;DHT22;11481;53.694;9.910;2022-12-17T06:58:35;-3.80;99.90
22629;DHT22;11481;53.694;9.910;2022-12-17T07:01:21;-3.80;99.90
22629;DHT22;11481;53.694;9.910;2022-12-17T07:04:07;-3.80;99.90
22629;DHT22;11481;53.694;9.910;2022-12-17T07:06:52;-3.80;99.90
22629;DHT22;11481;53.694;9.910;2022-12-17T07:09:37;-3.70;99.90
22629;DHT22;11481;53.694;9.910;2022-12-17T07:12:23;-3.60;99.90
22629;DHT22;11481;53.694;9.910;2022-12-17T07:15:08;-3.60;99.90
22629;DHT22;11481;53.694;9.910;2022-12-17T07:18:01;-3.70;99.90
22629;DHT22;11481;53.694;9.910;2022-12-17T07:20:47;-3.60;99.90
22629;DHT22;11481;53.694;9.910;2022-12-17T07:23:33;-3.60;99.90
22629;DHT22;11481;53.694;9.910;2022-12-17T07:26:18;-3.60;99.90
22629;DHT22;11481;53.694;9.910;2022-12-17T07:29:03;-3.60;99.90
22629;DHT22;11481;53.694;9.910;2022-12-17T07:31:48;-3.60;99.90
22629;DHT22;11481;53.694;9.910;2022-12-17T07:34:34;-3.60;99.90
22629;DHT22;11481;53.694;9.910;2022-12-17T07:37:19;-3.60;99.90
22629;DHT22;11481;53.694;9.910;2022-12-17T07:40:06;-3.60;99.90
22629;DHT22;11481;53.694;9.910;2022-12-17T07:42:51;-3.60;99.90
22629;DHT22;11481;53.694;9.910;2022-12-17T07:45:36;-3.60;99.90
22629;DHT22;11481;53.694;9.910;2022-12-17T07:48:22;-3.60;99.90
22629;DHT22;11481;53.694;9.910;2022-12-17T07:51:07;-3.50;99.90
22629;DHT22;11481;53.694;9.910;2022-12-17T07:53:52;-3.50;99.90
22629;DHT22;11481;53.694;9.910;2022-12-17T07:56:38;-3.50;99.90
22629;DHT22;11481;53.694;9.910;2022-12-17T07:59:23;-3.40;99.90
22629;DHT22;11481;53.694;9.910;2022-12-17T08:02:09;-3.40;99.90
22629;DHT22;11481;53.694;9.910;2022-12-17T08:04:55;-3.50;99.90
22629;DHT22;11481;53.694;9.910;2022-12-17T08:07:40;-3.50;99.90
22629;DHT22;11481;53.694;9.910;2022-12-17T08:10:25;-3.50;99.90
22629;DHT22;11481;53.694;9.910;2022-12-17T08:13:11;-3.50;99.90
22629;DHT22;11481;53.694;9.910;2022-12-17T08:15:56;-3.40;99.90
22629;DHT22;11481;53.694;9.910;2022-12-17T08:18:41;-3.30;99.90
22629;DHT22;11481;53.694;9.910;2022-12-17T08:21:27;-3.20;99.90
22629;DHT22;11481;53.694;9.910;2022-12-17T08:24:12;-3.30;99.90
22629;DHT22;11481;53.694;9.910;2022-12-17T08:26:57;-3.20;99.90
22629;DHT22;11481;53.694;9.910;2022-12-17T08:29:43;-3.20;99.90
22629;DHT22;11481;53.694;9.910;2022-12-17T08:32:28;-3.30;99.90
22629;DHT22;11481;53.694;9.910;2022-12-17T08:35:13;-3.30;99.90
22629;DHT22;11481;53.694;9.910;2022-12-17T08:38:05;-3.30;99.90
22629;DHT22;11481;53.694;9.910;2022-12-17T08:40:50;-3.30;99.90
22629;DHT22;11481;53.694;9.910;2022-12-17T08:43:35;-3.30;99.90
22629;DHT22;11481;53.694;9.910;2022-12-17T08:46:20;-3.20;99.90
22629;DHT22;11481;53.694;9.910;2022-12-17T08:49:06;-3.20;99.90
22629;DHT22;11481;53.694;9.910;2022-12-17T08:51:51;-3.10;99.90
22629;DHT22;11481;53.694;9.910;2022-12-17T08:54:36;-3.00;99.90
22629;DHT22;11481;53.694;9.910;2022-12-17T08:57:21;-2.90;99.90
22629;DHT22;11481;53.694;9.910;2022-12-17T09:00:08;-2.80;99.90
22629;DHT22;11481;53.694;9.910;2022-12-17T09:03:00;-2.80;99.90
22629;DHT22;11481;53.694;9.910;2022-12-17T09:05:46;-2.70;99.90
22629;DHT22;11481;53.694;9.910;2022-12-17T09:08:32;-2.60;99.90
22629;DHT22;11481;53.694;9.910;2022-12-17T09:11:17;-2.50;99.90
22629;DHT22;11481;53.694;9.910;2022-12-17T09:14:02;-2.50;99.90
22629;DHT22;11481;53.694;9.910;2022-12-17T09:16:47;-2.50;99.90
22629;DHT22;11481;53.694;9.910;2022-12-17T09:19:34;-2.40;99.90
22629;DHT22;11481;53.694;9.910;2022-12-17T09:22:20;-2.30;99.90
22629;DHT22;11481;53.694;9.910;2022-12-17T09:25:06;-2.20;99.90
22629;DHT22;11481;53.694;9.910;2022-12-17T09:27:51;-2.10;99.90
22629;DHT22;11481;53.694;9.910;2022-12-17T09:30:37;-2.00;99.90
22629;DHT22;11481;53.694;9.910;2022-12-17T09:33:22;-1.90;99.90
22629;DHT22;11481;53.694;9.910;2022-12-17T09:36:08;-1.80;99.90
22629;DHT22;11481;53.694;9.910;2022-12-17T09:38:53;-1.80;99.90
22629;DHT22;11481;53.694;9.910;2022-12-17T09:44:50;-1.60;99.90
22629;DHT22;11481;53.694;9.910;2022-12-17T09:50:58;-1.40;99.90
22629;DHT22;11481;53.694;9.910;2022-12-17T09:53:50;-1.30;99.90
22629;DHT22;11481;53.694;9.910;2022-12-17T09:56:37;-1.20;99.90
22629;DHT22;11481;53.694;9.910;2022-12-17T09:59:33;-1.20;99.90
22629;DHT22;11481;53.694;9.910;2022-12-17T10:02:25;-1.10;99.90
22629;DHT22;11481;53.694;9.910;2022-12-17T10:05:21;-1.10;99.90
22629;DHT22;11481;53.694;9.910;2022-12-17T10:08:12;-1.00;99.90
22629;DHT22;11481;53.694;9.910;2022-12-17T10:11:09;-0.90;99.90
22629;DHT22;11481;53.694;9.910;2022-12-17T10:17:03;-0.60;99.90
22629;DHT22;11481;53.694;9.910;2022-12-17T10:19:50;-0.60;99.90
22629;DHT22;11481;53.694;9.910;2022-12-17T10:22:45;-0.60;99.90
22629;DHT22;11481;53.694;9.910;2022-12-17T10:25:31;-0.70;99.90
22629;DHT22;11481;53.694;9.910;2022-12-17T10:28:19;-0.60;99.90
22629;DHT22;11481;53.694;9.910;2022-12-17T10:31:15;-0.50;99.90
22629;DHT22;11481;53.694;9.910;2022-12-17T10:34:05;-0.50;99.90
22629;DHT22;11481;53.694;9.910;2022-12-17T10:36:52;-0.40;99.90
22629;DHT22;11481;53.694;9.910;2022-12-17T10:39:38;-0.30;99.90
22629;DHT22;11481;53.694;9.910;2022-12-17T10:42:26;-0.20;99.90
22629;DHT22;11481;53.694;9.910;2022-12-17T10:45:22;-0.10;99.90
22629;DHT22;11481;53.694;9.910;2022-12-17T10:48:27;-0.10;99.90
22629;DHT22;11481;53.694;9.910;2022-12-17T10:51:34;-0.10;99.90
22629;DHT22;11481;53.694;9.910;2022-12-17T10:54:28;0.00;99.90
22629;DHT22;11481;53.694;9.910;2022-12-17T11:00:35;0.10;99.90
22629;DHT22;11481;53.694;9.910;2022-12-17T11:03:27;0.30;99.90
22629;DHT22;11481;53.694;9.910;2022-12-17T11:06:21;0.30;99.90
22629;DHT22;11481;53.694;9.910;2022-12-17T11:12:43;0.50;99.90
22629;DHT22;11481;53.694;9.910;2022-12-17T11:15:35;0.60;99.90
22629;DHT22;11481;53.694;9.910;2022-12-17T11:18:49;0.70;99.90
22629;DHT22;11481;53.694;9.910;2022-12-17T11:21:41;0.70;99.90
22629;DHT22;11481;53.694;9.910;2022-12-17T11:24:32;0.80;99.90
22629;DHT22;11481;53.694;9.910;2022-12-17T11:27:26;0.90;99.90
22629;DHT22;11481;53.694;9.910;2022-12-17T11:30:14;0.90;99.90
22629;DHT22;11481;53.694;9.910;2022-12-17T11:33:16;1.00;99.90
22629;DHT22;11481;53.694;9.910;2022-12-17T11:40:24;0.90;99.90
22629;DHT22;11481;53.694;9.910;2022-12-17T11:49:32;1.30;99.90
22629;DHT22;11481;53.694;9.910;2022-12-17T11:55:33;1.60;99.90
22629;DHT22;11481;53.694;9.910;2022-12-17T11:58:50;1.70;99.90
22629;DHT22;11481;53.694;9.910;2022-12-17T12:01:49;1.70;99.90
22629;DHT22;11481;53.694;9.910;2022-12-17T12:05:02;1.70;99.90
22629;DHT22;11481;53.694;9.910;2022-12-17T12:08:20;1.80;99.90
22629;DHT22;11481;53.694;9.910;2022-12-17T12:11:36;1.80;99.90
22629;DHT22;11481;53.694;9.910;2022-12-17T12:14:42;2.10;99.90
22629;DHT22;11481;53.694;9.910;2022-12-17T12:17:48;2.20;99.90
22629;DHT22;11481;53.694;9.910;2022-12-17T12:23:57;2.30;99.90
22629;DHT22;11481;53.694;9.910;2022-12-17T12:27:22;2.40;99.90
22629;DHT22;11481;53.694;9.910;2022-12-17T12:30:23;2.40;99.90
22629;DHT22;11481;53.694;9.910;2022-12-17T12:36:06;2.50;99.90
22629;DHT22;11481;53.694;9.910;2022-12-17T12:38:54;2.50;99.90
22629;DHT22;11481;53.694;9.910;2022-12-17T12:47:36;2.70;99.90
22629;DHT22;11481;53.694;9.910;2022-12-17T12:50:53;2.60;99.90
22629;DHT22;11481;53.694;9.910;2022-12-17T12:53:39;2.70;99.90
22629;DHT22;11481;53.694;9.910;2022-12-17T12:56:33;2.80;99.90
22629;DHT22;11481;53.694;9.910;2022-12-17T12:59:30;3.00;99.90
22629;DHT22;11481;53.694;9.910;2022-12-17T13:02:29;2.80;99.90
22629;DHT22;11481;53.694;9.910;2022-12-17T13:10:34;2.70;99.90
22629;DHT22;11481;53.694;9.910;2022-12-17T13:13:26;2.80;99.90
22629;DHT22;11481;53.694;9.910;2022-12-17T13:16:15;2.90;99.90
22629;DHT22;11481;53.694;9.910;2022-12-17T13:18:46;2.90;99.90
22629;DHT22;11481;53.694;9.910;2022-12-17T13:23:45;3.00;99.90
22629;DHT22;11481;53.694;9.910;2022-12-17T13:26:30;3.10;99.90
22629;DHT22;11481;53.694;9.910;2022-12-17T13:29:12;2.90;99.90
22629;DHT22;11481;53.694;9.910;2022-12-17T13:34:41;2.90;99.90
22629;DHT22;11481;53.694;9.910;2022-12-17T13:37:40;3.00;99.90
22629;DHT22;11481;53.694;9.910;2022-12-17T13:42:48;2.80;99.90
22629;DHT22;11481;53.694;9.910;2022-12-17T13:45:17;2.90;99.90
22629;DHT22;11481;53.694;9.910;2022-12-17T13:47:55;3.00;99.90
22629;DHT22;11481;53.694;9.910;2022-12-17T13:50:27;3.10;99.90
22629;DHT22;11481;53.694;9.910;2022-12-17T13:53:10;3.20;99.90
22629;DHT22;11481;53.694;9.910;2022-12-17T13:55:37;3.30;99.90
22629;DHT22;11481;53.694;9.910;2022-12-17T13:58:04;3.10;99.90
22629;DHT22;11481;53.694;9.910;2022-12-17T14:00:31;3.00;99.90
22629;DHT22;11481;53.694;9.910;2022-12-17T14:03:08;2.80;99.90
22629;DHT22;11481;53.694;9.910;2022-12-17T14:05:37;2.70;99.90
22629;DHT22;11481;53.694;9.910;2022-12-17T14:08:08;2.70;99.90
22629;DHT22;11481;53.694;9.910;2022-12-17T14:10:44;2.70;99.90
22629;DHT22;11481;53.694;9.910;2022-12-17T14:13:13;2.80;99.90
22629;DHT22;11481;53.694;9.910;2022-12-17T14:15:47;2.90;99.90
22629;DHT22;11481;53.694;9.910;2022-12-17T14:18:17;2.80;99.90
22629;DHT22;11481;53.694;9.910;2022-12-17T14:20:45;2.80;99.90
22629;DHT22;11481;53.694;9.910;2022-12-17T14:23:26;2.80;99.90
22629;DHT22;11481;53.694;9.910;2022-12-17T14:25:53;2.80;99.90
22629;DHT22;11481;53.694;9.910;2022-12-17T14:28:29;2.90;99.90
22629;DHT22;11481;53.694;9.910;2022-12-17T14:31:14;2.80;99.90
22629;DHT22;11481;53.694;9.910;2022-12-17T14:34:04;2.60;99.90
22629;DHT22;11481;53.694;9.910;2022-12-17T14:36:38;2.60;99.90
22629;DHT22;11481;53.694;9.910;2022-12-17T14:41:42;2.60;99.90
22629;DHT22;11481;53.694;9.910;2022-12-17T14:44:29;2.60;99.90
22629;DHT22;11481;53.694;9.910;2022-12-17T14:47:19;2.60;99.90
22629;DHT22;11481;53.694;9.910;2022-12-17T14:49:55;2.40;99.90
22629;DHT22;11481;53.694;9.910;2022-12-17T14:55:33;2.30;99.90
22629;DHT22;11481;53.694;9.910;2022-12-17T15:08:40;2.00;99.90
22629;DHT22;11481;53.694;9.910;2022-12-17T15:11:11;1.90;99.90
22629;DHT22;11481;53.694;9.910;2022-12-17T15:13:38;1.90;99.90
22629;DHT22;11481;53.694;9.910;2022-12-17T15:16:05;1.90;99.90
22629;DHT22;11481;53.694;9.910;2022-12-17T15:18:32;1.90;99.90
22629;DHT22;11481;53.694;9.910;2022-12-17T15:21:00;1.90;99.90
22629;DHT22;11481;53.694;9.910;2022-12-17T15:23:26;1.90;99.90
22629;DHT22;11481;53.694;9.910;2022-12-17T15:25:53;1.90;99.90
22629;DHT22;11481;53.694;9.910;2022-12-17T15:28:20;1.90;99.90
22629;DHT22;11481;53.694;9.910;2022-12-17T15:30:48;1.80;99.90
22629;DHT22;11481;53.694;9.910;2022-12-17T15:33:15;1.70;99.90
22629;DHT22;11481;53.694;9.910;2022-12-17T15:35:42;1.60;99.90
22629;DHT22;11481;53.694;9.910;2022-12-17T15:38:10;1.60;99.90
22629;DHT22;11481;53.694;9.910;2022-12-17T15:40:38;1.50;99.90
22629;DHT22;11481;53.694;9.910;2022-12-17T15:43:09;1.40;99.90
22629;DHT22;11481;53.694;9.910;2022-12-17T15:45:43;1.40;99.90
22629;DHT22;11481;53.694;9.910;2022-12-17T15:48:12;1.40;99.90
22629;DHT22;11481;53.694;9.910;2022-12-17T15:50:39;1.30;99.90
22629;DHT22;11481;53.694;9.910;2022-12-17T15:53:05;1.30;99.90
22629;DHT22;11481;53.694;9.910;2022-12-17T15:55:33;1.30;99.90
22629;DHT22;11481;53.694;9.910;2022-12-17T15:57:59;1.20;99.90
22629;DHT22;11481;53.694;9.910;2022-12-17T16:00:26;1.20;99.90
22629;DHT22;11481;53.694;9.910;2022-12-17T16:02:53;1.20;99.90
22629;DHT22;11481;53.694;9.910;2022-12-17T16:05:20;1.20;99.90
22629;DHT22;11481;53.694;9.910;2022-12-17T16:07:48;1.20;99.90
22629;DHT22;11481;53.694;9.910;2022-12-17T16:10:16;1.10;99.90
22629;DHT22;11481;53.694;9.910;2022-12-17T16:12:43;1.00;99.90
22629;DHT22;11481;53.694;9.910;2022-12-17T16:15:11;0.90;99.90
22629;DHT22;11481;53.694;9.910;2022-12-17T16:17:38;0.80;99.90
22629;DHT22;11481;53.694;9.910;2022-12-17T16:20:05;0.80;99.90
22629;DHT22;11481;53.694;9.910;2022-12-17T16:22:32;0.80;99.90
22629;DHT22;11481;53.694;9.910;2022-12-17T16:25:00;0.80;99.90
22629;DHT22;11481;53.694;9.910;2022-12-17T16:27:27;0.80;99.90
22629;DHT22;11481;53.694;9.910;2022-12-17T16:29:54;0.70;99.90
22629;DHT22;11481;53.694;9.910;2022-12-17T16:32:21;0.70;99.90
22629;DHT22;11481;53.694;9.910;2022-12-17T16:34:48;0.60;99.90
22629;DHT22;11481;53.694;9.910;2022-12-17T16:37:14;0.60;99.90
22629;DHT22;11481;53.694;9.910;2022-12-17T16:39:41;0.50;99.90
22629;DHT22;11481;53.694;9.910;2022-12-17T16:42:07;0.50;99.90
22629;DHT22;11481;53.694;9.910;2022-12-17T16:44:34;0.50;99.90
22629;DHT22;11481;53.694;9.910;2022-12-17T16:47:01;0.50;99.90
22629;DHT22;11481;53.694;9.910;2022-12-17T16:49:30;0.50;99.90
22629;DHT22;11481;53.694;9.910;2022-12-17T16:51:57;0.50;99.90
22629;DHT22;11481;53.694;9.910;2022-12-17T16:54:29;0.40;99.90
22629;DHT22;11481;53.694;9.910;2022-12-17T16:56:57;0.40;99.90
22629;DHT22;11481;53.694;9.910;2022-12-17T16:59:24;0.40;99.90
22629;DHT22;11481;53.694;9.910;2022-12-17T17:01:51;0.40;99.90
22629;DHT22;11481;53.694;9.910;2022-12-17T17:04:20;0.40;99.90
22629;DHT22;11481;53.694;9.910;2022-12-17T17:06:49;0.40;99.90
22629;DHT22;11481;53.694;9.910;2022-12-17T17:09:17;0.40;99.90
22629;DHT22;11481;53.694;9.910;2022-12-17T17:11:45;0.30;99.90
22629;DHT22;11481;53.694;9.910;2022-12-17T17:14:17;0.30;99.90
22629;DHT22;11481;53.694;9.910;2022-12-17T17:16:43;0.30;99.90
22629;DHT22;11481;53.694;9.910;2022-12-17T17:19:10;0.30;99.90
22629;DHT22;11481;53.694;9.910;2022-12-17T17:21:42;0.20;99.90
22629;DHT22;11481;53.694;9.910;2022-12-17T17:24:15;0.20;99.90
22629;DHT22;11481;53.694;9.910;2022-12-17T17:26:48;0.20;99.90
22629;DHT22;11481;53.694;9.910;2022-12-17T17:29:15;0.20;99.90
22629;DHT22;11481;53.694;9.910;2022-12-17T17:31:42;0.20;99.90
22629;DHT22;11481;53.694;9.910;2022-12-17T17:34:29;0.20;99.90
22629;DHT22;11481;53.694;9.910;2022-12-17T17:36:56;0.10;99.90
22629;DHT22;11481;53.694;9.910;2022-12-17T17:39:22;0.00;99.90
22629;DHT22;11481;53.694;9.910;2022-12-17T17:41:49;0.00;99.90
22629;DHT22;11481;53.694;9.910;2022-12-17T17:44:16;0.00;99.90
22629;DHT22;11481;53.694;9.910;2022-12-17T17:46:42;0.00;99.90
22629;DHT22;11481;53.694;9.910;2022-12-17T17:49:09;0.00;99.90
22629;DHT22;11481;53.694;9.910;2022-12-17T17:51:39;-0.10;99.90
22629;DHT22;11481;53.694;9.910;2022-12-17T17:54:27;-0.10;99.90
22629;DHT22;11481;53.694;9.910;2022-12-17T17:56:53;-0.30;99.90
22629;DHT22;11481;53.694;9.910;2022-12-17T17:59:20;-0.50;99.90
22629;DHT22;11481;53.694;9.910;2022-12-17T18:01:58;-0.60;99.90
22629;DHT22;11481;53.694;9.910;2022-12-17T18:04:25;-0.60;99.90
22629;DHT22;11481;53.694;9.910;2022-12-17T18:06:52;-0.60;99.90
22629;DHT22;11481;53.694;9.910;2022-12-17T18:09:38;-0.70;99.90
22629;DHT22;11481;53.694;9.910;2022-12-17T18:12:05;-0.80;99.90
22629;DHT22;11481;53.694;9.910;2022-12-17T18:14:53;-0.90;99.90
22629;DHT22;11481;53.694;9.910;2022-12-17T18:17:40;-1.00;99.90
22629;DHT22;11481;53.694;9.910;2022-12-17T18:20:07;-1.10;99.90
22629;DHT22;11481;53.694;9.910;2022-12-17T18:22:35;-1.10;99.90
22629;DHT22;11481;53.694;9.910;2022-12-17T18:25:01;-1.20;99.90
22629;DHT22;11481;53.694;9.910;2022-12-17T18:27:28;-1.10;99.90
22629;DHT22;11481;53.694;9.910;2022-12-17T18:29:54;-1.00;99.90
22629;DHT22;11481;53.694;9.910;2022-12-17T18:32:21;-1.00;99.90
22629;DHT22;11481;53.694;9.910;2022-12-17T18:34:47;-1.00;99.90
22629;DHT22;11481;53.694;9.910;2022-12-17T18:37:14;-1.10;99.90
22629;DHT22;11481;53.694;9.910;2022-12-17T18:39:41;-1.00;99.90